createdAt,value
2023-03-28T00:02:00.999Z,90.70
2023-03-28T00:04:06.280Z,91.30
2023-03-28T00:06:16.546Z,91.10
2023-03-28T00:08:22.410Z,91.20
2023-03-28T00:10:28.283Z,91.30
2023-03-28T00:12:33.212Z,91.20
2023-03-28T00:14:42.871Z,91.30
2023-03-28T00:16:48.351Z,91.00
2023-03-28T00:18:53.801Z,91.20
2023-03-28T00:20:59.002Z,91.50
2023-03-28T00:23:04.258Z,91.30
2023-03-28T00:25:11.928Z,91.50
2023-03-28T00:27:17.951Z,91.80
2023-03-28T00:29:26.457Z,91.60
2023-03-28T00:31:36.148Z,91.50
2023-03-28T00:33:42.123Z,91.90
2023-03-28T00:35:47.326Z,92.10
2023-03-28T00:37:58.621Z,91.80
2023-03-28T00:40:07.778Z,92.20
2023-03-28T00:42:17.726Z,92.20
2023-03-28T00:44:49.897Z,92.40
2023-03-28T00:46:58.337Z,92.60
2023-03-28T00:49:07.946Z,93.00
2023-03-28T00:51:14.966Z,92.70
2023-03-28T00:53:25.715Z,92.80
2023-03-28T00:55:37.425Z,92.40
2023-03-28T00:57:42.861Z,93.10
2023-03-28T00:59:48.636Z,93.40
2023-03-28T01:01:54.102Z,92.90
2023-03-28T01:04:03.270Z,92.90
2023-03-28T01:06:11.812Z,92.90
2023-03-28T01:08:23.388Z,92.80
2023-03-28T01:10:28.674Z,93.30
2023-03-28T01:12:34.622Z,93.30
2023-03-28T01:14:43.714Z,93.20
2023-03-28T01:16:49.730Z,93.40
2023-03-28T01:18:57.062Z,93.60
2023-03-28T01:21:57.769Z,93.50
2023-03-28T01:24:53.408Z,93.40
2023-03-28T01:27:04.267Z,92.70
2023-03-28T01:30:01.045Z,91.80
2023-03-28T01:33:12.220Z,90.50
2023-03-28T01:35:44.355Z,89.60
2023-03-28T01:37:56.191Z,89.10
2023-03-28T01:40:27.306Z,88.70
2023-03-28T01:42:55.516Z,88.60
2023-03-28T01:45:15.100Z,89.10
2023-03-28T01:47:28.547Z,89.00
2023-03-28T01:49:40.314Z,88.60
2023-03-28T01:51:59.544Z,88.60
2023-03-28T01:54:16.825Z,88.10
2023-03-28T01:56:32.100Z,87.90
2023-03-28T01:58:47.007Z,87.80
2023-03-28T02:01:08.188Z,87.20
2023-03-28T02:03:21.927Z,86.80
2023-03-28T02:05:52.871Z,86.30
2023-03-28T02:08:01.466Z,86.90
2023-03-28T02:10:22.006Z,87.10
2023-03-28T02:12:39.162Z,87.40
2023-03-28T02:14:50.758Z,87.60
2023-03-28T02:17:18.250Z,87.80
2023-03-28T02:19:44.394Z,88.50
2023-03-28T02:22:12.322Z,88.70
2023-03-28T02:24:36.406Z,89.10
2023-03-28T02:27:00.476Z,89.50
2023-03-28T02:29:23.374Z,89.50
2023-03-28T02:31:50.422Z,89.60
2023-03-28T02:33:58.952Z,89.80
2023-03-28T02:36:28.246Z,90.00
2023-03-28T02:38:42.733Z,90.10
2023-03-28T02:40:58.531Z,90.20
2023-03-28T02:43:24.381Z,90.00
2023-03-28T02:46:01.302Z,90.00
2023-03-28T02:48:21.871Z,89.70
2023-03-28T02:50:37.447Z,89.90
2023-03-28T02:52:53.420Z,89.90
2023-03-28T02:55:04.800Z,89.90
2023-03-28T02:57:22.929Z,89.90
2023-03-28T02:59:40.689Z,89.90
2023-03-28T03:01:46.606Z,90.00
2023-03-28T03:03:52.199Z,89.90
2023-03-28T03:05:58.519Z,90.00
2023-03-28T03:08:03.667Z,90.20
2023-03-28T03:10:15.529Z,90.20
2023-03-28T03:12:24.226Z,90.20
2023-03-28T03:14:39.339Z,90.10
2023-03-28T03:17:09.888Z,90.40
2023-03-28T03:19:15.889Z,90.40
2023-03-28T03:21:21.948Z,90.30
2023-03-28T03:23:27.411Z,90.40
2023-03-28T03:25:37.424Z,90.30
2023-03-28T03:27:49.764Z,90.30
2023-03-28T03:30:00.605Z,90.20
2023-03-28T03:32:15.528Z,90.10
2023-03-28T03:34:34.643Z,90.20
2023-03-28T03:36:40.685Z,90.20
2023-03-28T03:38:46.025Z,90.10
2023-03-28T03:40:55.390Z,90.20
2023-03-28T03:43:02.047Z,90.00
2023-03-28T03:45:13.002Z,89.70
2023-03-28T03:47:20.950Z,90.20
2023-03-28T03:49:28.557Z,90.10
2023-03-28T03:51:35.416Z,90.40
2023-03-28T03:53:41.487Z,90.40
2023-03-28T03:55:50.786Z,90.50
2023-03-28T03:57:56.632Z,90.70
2023-03-28T04:00:06.361Z,90.40
2023-03-28T04:02:14.764Z,90.30
2023-03-28T04:04:37.577Z,90.50
2023-03-28T04:06:54.204Z,90.70
2023-03-28T04:08:59.687Z,90.60
2023-03-28T04:11:27.140Z,90.90
2023-03-28T04:13:32.177Z,91.00
2023-03-28T04:15:40.339Z,91.00
2023-03-28T04:18:06.852Z,91.10
2023-03-28T04:20:18.778Z,91.30
2023-03-28T04:22:44.940Z,91.50
2023-03-28T04:24:53.850Z,91.50
2023-03-28T04:27:13.986Z,91.70
2023-03-28T04:29:25.403Z,91.60
2023-03-28T04:31:56.512Z,91.70
2023-03-28T04:34:39.554Z,91.80
2023-03-28T04:36:52.137Z,92.00
2023-03-28T04:38:58.433Z,92.20
2023-03-28T04:41:34.384Z,92.30
2023-03-28T04:44:03.118Z,92.30
2023-03-28T04:46:13.736Z,92.40
2023-03-28T04:48:18.937Z,92.30
2023-03-28T04:50:27.025Z,92.10
2023-03-28T04:52:32.315Z,92.40
2023-03-28T04:54:37.699Z,92.40
2023-03-28T04:56:48.160Z,92.20
2023-03-28T04:58:56.288Z,92.30
2023-03-28T05:01:05.794Z,92.40
2023-03-28T05:03:29.928Z,92.30
2023-03-28T05:05:42.909Z,92.30
2023-03-28T05:07:51.993Z,92.40
2023-03-28T05:09:59.137Z,92.30
2023-03-28T05:12:11.868Z,92.20
2023-03-28T05:14:49.303Z,92.20
2023-03-28T05:16:56.290Z,92.20
2023-03-28T05:19:22.988Z,92.40
2023-03-28T05:21:59.998Z,92.30
2023-03-28T05:24:05.501Z,92.10
2023-03-28T05:26:10.544Z,92.10
2023-03-28T05:28:16.659Z,92.00
2023-03-28T05:30:28.436Z,92.10
2023-03-28T05:32:35.846Z,91.90
2023-03-28T05:34:41.380Z,91.70
2023-03-28T05:36:47.675Z,91.80
2023-03-28T05:39:24.713Z,91.40
2023-03-28T05:41:36.391Z,91.20
2023-03-28T05:43:42.011Z,91.20
2023-03-28T05:45:49.556Z,91.00
2023-03-28T05:48:00.305Z,90.70
2023-03-28T05:50:07.469Z,91.10
2023-03-28T05:52:12.843Z,91.00
2023-03-28T05:54:18.834Z,90.80
2023-03-28T05:56:26.562Z,90.70
2023-03-28T05:58:32.099Z,90.80
2023-03-28T06:00:37.514Z,90.70
2023-03-28T06:02:44.762Z,90.70
2023-03-28T06:04:50.402Z,90.90
2023-03-28T06:06:55.634Z,90.60
2023-03-28T06:09:03.707Z,88.80
2023-03-28T06:11:19.669Z,89.40
2023-03-28T06:13:43.351Z,88.60
2023-03-28T06:15:52.228Z,88.50
2023-03-28T06:18:04.851Z,87.90
2023-03-28T06:20:12.646Z,87.60
2023-03-28T06:22:17.792Z,88.20
2023-03-28T06:24:28.486Z,87.30
2023-03-28T06:26:33.503Z,87.30
2023-03-28T06:28:39.445Z,88.00
2023-03-28T06:31:03.980Z,87.90
2023-03-28T06:33:09.249Z,87.50
2023-03-28T06:35:14.331Z,87.50
2023-03-28T06:37:19.518Z,86.70
2023-03-28T06:39:40.388Z,86.20
2023-03-28T06:41:45.445Z,86.00
2023-03-28T06:43:51.491Z,86.00
2023-03-28T06:46:17.809Z,84.80
2023-03-28T06:48:23.525Z,85.70
2023-03-28T06:50:50.387Z,86.00
2023-03-28T06:52:58.285Z,85.20
2023-03-28T06:55:04.670Z,85.20
2023-03-28T06:57:09.792Z,84.90
2023-03-28T06:59:18.463Z,85.30
2023-03-28T07:01:31.779Z,85.50
2023-03-28T07:03:43.167Z,86.10
2023-03-28T07:05:51.555Z,85.60
2023-03-28T07:07:57.161Z,84.10
2023-03-28T07:10:02.637Z,83.60
2023-03-28T07:12:09.402Z,84.30
2023-03-28T07:14:14.829Z,83.10
2023-03-28T07:16:21.047Z,82.80
2023-03-28T07:18:29.970Z,82.70
2023-03-28T07:20:35.505Z,82.00
2023-03-28T07:22:40.621Z,81.50
2023-03-28T07:24:45.907Z,82.00
2023-03-28T07:26:54.825Z,80.80
2023-03-28T07:29:07.909Z,80.20
2023-03-28T07:31:13.517Z,81.00
2023-03-28T07:33:22.467Z,80.50
2023-03-28T07:35:36.431Z,80.50
2023-03-28T07:37:41.626Z,79.60
2023-03-28T07:40:05.513Z,78.20
2023-03-28T07:42:13.660Z,78.80
2023-03-28T07:44:21.143Z,77.10
2023-03-28T07:46:26.217Z,79.40
2023-03-28T07:48:32.057Z,77.80
2023-03-28T07:50:40.062Z,76.70
2023-03-28T07:52:46.141Z,76.50
2023-03-28T07:54:52.389Z,76.80
2023-03-28T07:56:58.642Z,74.60
2023-03-28T07:59:38.777Z,74.90
2023-03-28T08:01:43.974Z,73.30
2023-03-28T08:03:49.176Z,73.40
2023-03-28T08:05:57.894Z,75.30
2023-03-28T08:08:03.818Z,72.70
2023-03-28T08:10:14.006Z,74.20
2023-03-28T08:12:19.713Z,73.30
2023-03-28T08:14:26.023Z,72.00
2023-03-28T08:16:31.213Z,73.60
2023-03-28T08:18:36.743Z,73.80
2023-03-28T08:20:43.203Z,73.10
2023-03-28T08:22:53.834Z,70.70
2023-03-28T08:25:17.779Z,71.30
2023-03-28T08:27:24.428Z,70.30
2023-03-28T08:29:36.907Z,71.60
2023-03-28T08:31:42.585Z,69.60
2023-03-28T08:33:51.725Z,68.90
2023-03-28T08:36:01.230Z,69.60
2023-03-28T08:38:11.469Z,69.30
2023-03-28T08:40:20.838Z,68.10
2023-03-28T08:42:52.623Z,68.60
2023-03-28T08:45:17.424Z,68.80
2023-03-28T08:47:28.550Z,70.20
2023-03-28T08:49:43.709Z,68.80
2023-03-28T08:51:54.580Z,68.30
2023-03-28T08:54:14.948Z,67.80
2023-03-28T08:56:20.761Z,66.60
2023-03-28T08:58:28.661Z,64.60
2023-03-28T09:00:37.416Z,65.30
2023-03-28T09:02:42.737Z,64.90
2023-03-28T09:04:48.497Z,67.00
2023-03-28T09:07:08.706Z,67.30
2023-03-28T09:09:32.486Z,68.30
2023-03-28T09:12:11.996Z,65.40
2023-03-28T09:14:43.544Z,65.30
2023-03-28T09:17:03.363Z,62.30
2023-03-28T09:19:37.097Z,61.30
2023-03-28T09:22:22.077Z,64.60
2023-03-28T09:24:48.177Z,62.70
2023-03-28T09:27:02.928Z,61.00
2023-03-28T09:29:17.879Z,62.10
2023-03-28T09:31:28.157Z,59.00
2023-03-28T09:33:40.879Z,60.10
2023-03-28T09:35:51.706Z,61.60
2023-03-28T09:38:02.435Z,62.10
2023-03-28T09:40:22.101Z,62.30
2023-03-28T09:43:04.761Z,61.40
2023-03-28T09:45:35.221Z,60.00
2023-03-28T09:48:00.564Z,58.20
2023-03-28T09:50:17.697Z,58.30
2023-03-28T09:52:26.097Z,59.80
2023-03-28T09:54:35.795Z,61.80
2023-03-28T09:56:47.209Z,59.30
2023-03-28T09:59:07.560Z,59.90
2023-03-28T10:01:40.874Z,60.40
2023-03-28T10:03:57.395Z,59.00
2023-03-28T10:06:28.936Z,59.50
2023-03-28T10:08:42.869Z,59.50
2023-03-28T10:11:15.362Z,57.90
2023-03-28T10:13:23.658Z,61.70
2023-03-28T10:15:43.985Z,58.00
2023-03-28T10:18:24.332Z,56.70
2023-03-28T10:20:51.118Z,59.60
2023-03-28T10:23:01.048Z,54.80
2023-03-28T10:25:10.987Z,57.30
2023-03-28T10:27:24.310Z,59.10
2023-03-28T10:29:33.865Z,57.10
2023-03-28T10:31:42.108Z,57.10
2023-03-28T10:34:04.030Z,58.40
2023-03-28T10:36:35.024Z,58.40
2023-03-28T10:38:50.707Z,59.60
2023-03-28T10:41:33.930Z,54.50
2023-03-28T10:43:51.158Z,54.50
2023-03-28T10:46:29.592Z,57.40
2023-03-28T10:48:54.289Z,55.30
2023-03-28T10:51:08.402Z,51.20
2023-03-28T10:53:42.252Z,59.40
2023-03-28T10:56:03.355Z,55.00
2023-03-28T10:58:23.660Z,51.00
2023-03-28T11:00:41.985Z,51.60
2023-03-28T11:03:18.912Z,53.40
2023-03-28T11:05:55.055Z,53.30
2023-03-28T11:08:32.646Z,53.20
2023-03-28T11:10:55.999Z,58.60
2023-03-28T11:13:23.228Z,57.20
2023-03-28T11:15:37.148Z,50.90
2023-03-28T11:18:14.121Z,50.30
2023-03-28T11:20:47.345Z,51.90
2023-03-28T11:23:09.798Z,55.40
2023-03-28T11:25:38.883Z,51.50
2023-03-28T11:28:09.778Z,50.60
2023-03-28T11:30:23.981Z,49.20
2023-03-28T11:32:49.109Z,50.30
2023-03-28T11:35:09.794Z,48.60
2023-03-28T11:37:21.305Z,49.40
2023-03-28T11:39:37.336Z,53.10
2023-03-28T11:41:46.262Z,49.90
2023-03-28T11:44:02.944Z,51.70
2023-03-28T11:46:13.142Z,47.60
2023-03-28T11:48:23.973Z,48.80
2023-03-28T11:50:43.291Z,52.40
2023-03-28T11:53:10.208Z,51.00
2023-03-28T11:55:26.552Z,50.40
2023-03-28T11:57:39.677Z,51.10
2023-03-28T11:59:52.865Z,51.90
2023-03-28T12:02:08.952Z,52.10
2023-03-28T12:04:19.442Z,52.80
2023-03-28T12:06:35.557Z,51.20
2023-03-28T12:08:48.605Z,51.50
2023-03-28T12:11:00.253Z,49.90
2023-03-28T12:13:31.795Z,51.70
2023-03-28T12:15:50.381Z,52.50
2023-03-28T12:18:02.098Z,49.30
2023-03-28T12:20:13.162Z,50.60
2023-03-28T12:22:30.614Z,44.40
2023-03-28T12:24:45.378Z,47.20
2023-03-28T12:27:09.315Z,49.70
2023-03-28T12:29:22.555Z,47.60
2023-03-28T12:31:34.345Z,49.50
2023-03-28T12:33:59.757Z,47.20
2023-03-28T12:36:35.568Z,46.10
2023-03-28T12:38:55.671Z,47.50
2023-03-28T12:41:16.410Z,49.30
2023-03-28T12:43:28.031Z,48.20
2023-03-28T12:45:36.425Z,49.60
2023-03-28T12:47:49.196Z,44.50
2023-03-28T12:50:00.894Z,47.00
2023-03-28T12:52:09.375Z,44.70
2023-03-28T12:54:31.953Z,50.00
2023-03-28T12:56:41.417Z,47.80
2023-03-28T12:58:49.053Z,43.40
2023-03-28T13:01:37.136Z,45.70
2023-03-28T13:04:13.784Z,45.30
2023-03-28T13:06:42.364Z,42.70
2023-03-28T13:09:06.133Z,44.70
2023-03-28T13:11:23.570Z,45.10
2023-03-28T13:13:36.594Z,43.00
2023-03-28T13:16:03.796Z,44.80
2023-03-28T13:18:33.036Z,43.10
2023-03-28T13:20:47.259Z,44.30
2023-03-28T13:22:58.296Z,43.20
2023-03-28T13:25:29.988Z,44.20
2023-03-28T13:27:44.999Z,43.00
2023-03-28T13:29:52.468Z,42.30
2023-03-28T13:32:08.217Z,42.20
2023-03-28T13:34:29.558Z,38.70
2023-03-28T13:36:36.100Z,39.20
2023-03-28T13:38:51.160Z,41.50
2023-03-28T13:40:59.726Z,37.60
2023-03-28T13:43:24.361Z,38.70
2023-03-28T13:45:30.261Z,38.50
2023-03-28T13:47:39.676Z,38.80
2023-03-28T13:49:51.618Z,37.20
2023-03-28T13:52:04.957Z,39.80
2023-03-28T13:54:13.303Z,39.50
2023-03-28T13:56:25.934Z,41.10
2023-03-28T13:58:33.902Z,41.70
2023-03-28T14:00:39.602Z,39.40
2023-03-28T14:02:48.767Z,40.60
2023-03-28T14:04:57.510Z,41.40
2023-03-28T14:07:04.277Z,39.00
2023-03-28T14:09:22.005Z,42.40
2023-03-28T14:11:32.213Z,42.80
2023-03-28T14:13:41.368Z,41.00
2023-03-28T14:15:47.715Z,40.30
2023-03-28T14:17:53.728Z,39.20
2023-03-28T14:20:03.000Z,38.60
2023-03-28T14:22:10.659Z,40.40
2023-03-28T14:24:24.021Z,39.70
2023-03-28T14:26:33.854Z,39.20
2023-03-28T14:28:44.464Z,39.00
2023-03-28T14:30:50.049Z,38.80
2023-03-28T14:33:01.270Z,38.80
2023-03-28T14:35:22.329Z,43.30
2023-03-28T14:37:30.169Z,40.20
2023-03-28T14:39:40.215Z,41.00
2023-03-28T14:41:46.780Z,42.80
2023-03-28T14:43:59.367Z,40.90
2023-03-28T14:46:09.443Z,39.70
2023-03-28T14:48:19.358Z,39.80
2023-03-28T14:50:25.588Z,41.30
2023-03-28T14:52:34.616Z,39.10
2023-03-28T14:54:47.038Z,36.60
2023-03-28T14:56:52.868Z,41.40
2023-03-28T14:59:05.032Z,42.40
2023-03-28T15:01:13.002Z,39.30
2023-03-28T15:03:22.729Z,40.60
2023-03-28T15:05:28.036Z,41.00
2023-03-28T15:07:38.320Z,40.80
2023-03-28T15:09:43.545Z,37.60
2023-03-28T15:11:48.667Z,40.50
2023-03-28T15:14:04.860Z,41.00
2023-03-28T15:16:11.732Z,38.80
2023-03-28T15:18:25.355Z,41.20
2023-03-28T15:20:34.297Z,37.10
2023-03-28T15:22:39.619Z,37.10
2023-03-28T15:24:45.300Z,35.40
2023-03-28T15:26:55.847Z,36.10
2023-03-28T15:29:05.198Z,38.30
2023-03-28T15:31:15.527Z,36.60
2023-03-28T15:33:24.867Z,33.20
2023-03-28T15:35:34.258Z,35.70
2023-03-28T15:37:46.485Z,35.10
2023-03-28T15:39:53.455Z,34.10
2023-03-28T15:42:03.557Z,32.30
2023-03-28T15:44:30.407Z,34.00
2023-03-28T15:46:37.121Z,35.10
2023-03-28T15:48:44.615Z,35.30
2023-03-28T15:50:56.504Z,36.60
2023-03-28T15:53:05.821Z,36.20
2023-03-28T15:55:11.799Z,35.30
2023-03-28T15:57:19.963Z,36.30
2023-03-28T15:59:35.258Z,35.90
2023-03-28T16:01:40.575Z,35.80
2023-03-28T16:03:46.433Z,34.70
2023-03-28T16:06:01.898Z,35.30
2023-03-28T16:08:27.683Z,38.00
2023-03-28T16:10:33.755Z,38.50
2023-03-28T16:12:58.027Z,38.40
2023-03-28T16:15:18.445Z,39.90
2023-03-28T16:17:49.824Z,41.60
2023-03-28T16:20:02.777Z,39.70
2023-03-28T16:22:07.863Z,40.50
2023-03-28T16:24:12.968Z,40.40
2023-03-28T16:26:18.522Z,42.10
2023-03-28T16:28:23.934Z,41.60
2023-03-28T16:30:36.939Z,43.00
2023-03-28T16:32:42.026Z,41.90
2023-03-28T16:34:47.225Z,42.00
2023-03-28T16:36:52.381Z,40.10
2023-03-28T16:38:57.824Z,41.90
2023-03-28T16:41:03.341Z,39.50
2023-03-28T16:43:08.818Z,40.60
2023-03-28T16:45:14.548Z,36.20
2023-03-28T16:47:22.196Z,36.00
2023-03-28T16:49:27.880Z,37.10
2023-03-28T16:51:33.341Z,38.80
2023-03-28T16:53:41.786Z,40.20
2023-03-28T16:55:46.911Z,39.90
2023-03-28T16:57:52.385Z,42.00
2023-03-28T17:00:03.917Z,43.00
2023-03-28T17:02:09.831Z,43.20
2023-03-28T17:04:17.557Z,42.90
2023-03-28T17:06:22.680Z,44.60
2023-03-28T17:08:28.050Z,43.00
2023-03-28T17:10:34.701Z,44.70
2023-03-28T17:12:40.051Z,47.00
2023-03-28T17:14:46.492Z,46.30
2023-03-28T17:16:51.898Z,46.50
2023-03-28T17:18:57.421Z,48.10
2023-03-28T17:21:08.226Z,46.80
2023-03-28T17:23:13.492Z,50.40
2023-03-28T17:25:19.134Z,49.30
2023-03-28T17:27:24.197Z,51.40
2023-03-28T17:29:29.456Z,51.60
2023-03-28T17:31:34.772Z,53.90
2023-03-28T17:33:40.554Z,52.40
2023-03-28T17:35:45.663Z,54.20
2023-03-28T17:37:54.171Z,55.60
2023-03-28T17:39:59.779Z,55.20
2023-03-28T17:42:04.851Z,58.30
2023-03-28T17:44:10.354Z,55.50
2023-03-28T17:46:15.708Z,58.30
2023-03-28T17:48:20.988Z,59.90
2023-03-28T17:50:26.787Z,59.10
2023-03-28T17:52:32.579Z,59.00
2023-03-28T17:54:41.562Z,58.60
2023-03-28T17:56:46.647Z,59.20
2023-03-28T17:58:52.008Z,60.50
2023-03-28T18:00:57.362Z,62.30
2023-03-28T18:03:02.530Z,63.00
2023-03-28T18:05:25.072Z,63.00
2023-03-28T18:07:33.041Z,64.70
2023-03-28T18:09:43.233Z,64.80
2023-03-28T18:11:48.467Z,66.00
2023-03-28T18:13:57.056Z,65.20
2023-03-28T18:16:04.593Z,65.90
2023-03-28T18:18:11.903Z,66.20
2023-03-28T18:20:17.375Z,66.70
2023-03-28T18:22:22.495Z,67.90
2023-03-28T18:24:28.132Z,68.30
2023-03-28T18:26:36.588Z,69.60
2023-03-28T18:28:41.716Z,71.60
2023-03-28T18:30:47.216Z,72.60
2023-03-28T18:32:52.307Z,72.90
2023-03-28T18:34:57.678Z,73.10
2023-03-28T18:37:04.168Z,73.80
2023-03-28T18:39:10.477Z,73.60
2023-03-28T18:41:15.762Z,74.20
2023-03-28T18:43:23.881Z,73.20
2023-03-28T18:45:28.971Z,74.00
2023-03-28T18:47:34.235Z,74.80
2023-03-28T18:49:41.065Z,74.90
2023-03-28T18:51:46.463Z,74.70
2023-03-28T18:53:51.552Z,76.50
2023-03-28T18:55:56.679Z,76.80
2023-03-28T18:58:04.644Z,77.60
2023-03-28T19:00:17.881Z,78.30
2023-03-28T19:02:23.804Z,77.60
2023-03-28T19:04:29.353Z,77.30
2023-03-28T19:06:34.485Z,77.80
2023-03-28T19:08:40.425Z,76.50
2023-03-28T19:10:48.657Z,76.80
2023-03-28T19:12:54.350Z,76.50
2023-03-28T19:14:59.592Z,77.20
2023-03-28T19:17:07.689Z,76.30
2023-03-28T19:19:12.739Z,77.50
2023-03-28T19:21:18.253Z,77.80
2023-03-28T19:23:23.662Z,77.50
2023-03-28T19:25:28.769Z,79.40
2023-03-28T19:27:33.813Z,79.10
2023-03-28T19:29:38.837Z,79.80
2023-03-28T19:31:44.096Z,79.20
2023-03-28T19:33:51.792Z,79.30
2023-03-28T19:35:56.881Z,79.00
2023-03-28T19:38:02.805Z,80.80
2023-03-28T19:40:13.553Z,80.60
2023-03-28T19:42:20.452Z,79.50
2023-03-28T19:44:25.911Z,79.60
2023-03-28T19:46:35.425Z,79.10
2023-03-28T19:48:43.300Z,79.90
2023-03-28T19:50:52.233Z,79.90
2023-03-28T19:52:57.741Z,80.40
2023-03-28T19:55:02.846Z,79.70
2023-03-28T19:57:08.526Z,80.60
2023-03-28T19:59:13.850Z,80.10
2023-03-28T20:01:18.929Z,81.10
2023-03-28T20:03:24.012Z,80.20
2023-03-28T20:05:29.210Z,80.10
2023-03-28T20:07:36.814Z,79.60
2023-03-28T20:09:45.935Z,79.00
2023-03-28T20:11:51.159Z,80.20
2023-03-28T20:13:56.186Z,78.90
2023-03-28T20:16:05.405Z,80.60
2023-03-28T20:18:11.569Z,81.00
2023-03-28T20:20:16.807Z,78.40
2023-03-28T20:22:24.528Z,80.10
2023-03-28T20:24:32.612Z,80.80
2023-03-28T20:26:37.716Z,80.60
2023-03-28T20:28:42.879Z,78.90
2023-03-28T20:30:48.611Z,79.70
2023-03-28T20:32:53.727Z,79.10
2023-03-28T20:34:59.099Z,79.80
2023-03-28T20:37:04.223Z,79.70
2023-03-28T20:39:09.518Z,81.20
2023-03-28T20:41:19.262Z,81.20
2023-03-28T20:43:29.445Z,80.50
2023-03-28T20:45:36.120Z,80.30
2023-03-28T20:47:41.366Z,81.80
2023-03-28T20:49:48.217Z,80.70
2023-03-28T20:51:53.239Z,81.50
2023-03-28T20:54:01.332Z,79.20
2023-03-28T20:56:10.254Z,78.50
2023-03-28T20:58:17.877Z,79.20
2023-03-28T21:00:25.314Z,80.10
2023-03-28T21:02:33.492Z,79.40
2023-03-28T21:04:39.524Z,79.90
2023-03-28T21:06:46.068Z,81.40
2023-03-28T21:08:54.024Z,82.40
2023-03-28T21:10:59.279Z,81.60
2023-03-28T21:13:04.889Z,80.40
2023-03-28T21:15:14.861Z,80.60
2023-03-28T21:17:22.184Z,80.60
2023-03-28T21:19:27.409Z,81.80
2023-03-28T21:21:34.408Z,80.80
2023-03-28T21:23:41.259Z,81.20
2023-03-28T21:25:48.281Z,81.30
2023-03-28T21:27:53.350Z,81.60
2023-03-28T21:30:01.478Z,81.40
2023-03-28T21:32:09.870Z,81.30
2023-03-28T21:34:16.442Z,81.90
2023-03-28T21:36:23.056Z,82.10
2023-03-28T21:38:29.275Z,81.90
2023-03-28T21:40:34.801Z,81.80
2023-03-28T21:42:39.822Z,80.90
2023-03-28T21:44:44.848Z,81.90
2023-03-28T21:46:49.883Z,82.30
2023-03-28T21:48:57.849Z,82.90
2023-03-28T21:51:05.089Z,83.40
2023-03-28T21:53:13.511Z,83.40
2023-03-28T21:55:18.831Z,83.20
2023-03-28T21:57:23.894Z,81.60
2023-03-28T21:59:29.368Z,80.30
2023-03-28T22:01:34.896Z,78.50
2023-03-28T22:03:41.024Z,78.00
2023-03-28T22:05:48.775Z,76.70
2023-03-28T22:07:53.912Z,75.90
2023-03-28T22:10:01.321Z,75.30
2023-03-28T22:12:08.677Z,75.20
2023-03-28T22:14:14.234Z,71.90
2023-03-28T22:16:20.317Z,69.80
2023-03-28T22:18:25.800Z,68.60
2023-03-28T22:20:31.735Z,67.10
2023-03-28T22:22:42.656Z,68.20
2023-03-28T22:24:47.885Z,70.30
2023-03-28T22:26:54.881Z,70.10
2023-03-28T22:29:00.838Z,69.70
2023-03-28T22:31:05.876Z,71.30
2023-03-28T22:33:13.597Z,71.20
2023-03-28T22:35:18.820Z,71.90
2023-03-28T22:37:25.511Z,71.50
2023-03-28T22:39:33.333Z,73.00
2023-03-28T22:41:38.354Z,71.50
2023-03-28T22:43:45.240Z,72.60
2023-03-28T22:45:50.435Z,72.10
2023-03-28T22:47:58.674Z,72.60
2023-03-28T22:50:04.483Z,72.90
2023-03-28T22:52:10.221Z,73.10
2023-03-28T22:54:16.189Z,74.20
2023-03-28T22:56:24.446Z,75.40
2023-03-28T22:58:29.779Z,76.60
2023-03-28T23:00:34.892Z,75.30
2023-03-28T23:02:40.622Z,76.10
2023-03-28T23:04:47.055Z,76.80
2023-03-28T23:06:52.917Z,76.90
2023-03-28T23:08:58.722Z,78.40
2023-03-28T23:11:03.902Z,77.10
2023-03-28T23:13:12.544Z,78.20
2023-03-28T23:15:18.134Z,79.70
2023-03-28T23:17:23.205Z,81.80
2023-03-28T23:19:28.363Z,81.70
2023-03-28T23:21:33.842Z,81.80
2023-03-28T23:23:39.197Z,82.00
2023-03-28T23:25:45.773Z,81.60
2023-03-28T23:27:51.462Z,82.80
2023-03-28T23:29:59.139Z,83.20
2023-03-28T23:32:04.187Z,83.30
2023-03-28T23:34:09.760Z,83.60
2023-03-28T23:36:20.335Z,83.80
2023-03-28T23:38:25.586Z,83.60
2023-03-28T23:40:30.793Z,83.80
2023-03-28T23:42:36.282Z,84.10
2023-03-28T23:44:41.282Z,84.90
2023-03-28T23:46:49.879Z,84.80
2023-03-28T23:48:55.294Z,84.90
2023-03-28T23:51:02.055Z,85.80
2023-03-28T23:53:07.619Z,86.30
2023-03-28T23:55:12.845Z,85.60
2023-03-28T23:57:18.187Z,84.30
2023-03-28T23:59:23.561Z,84.90
